Time;durP1;ratioP1;P1;durP2;ratioP2;P2;SDS_P1;SDS_P2;PMS_P1;PMS_P2;Temp;Humidity;BMP_temperature;BMP_pressure;BME280_temperature;BME280_humidity;BME280_pressure;Samples;Min_cycle;Max_cycle;Signal;HPM_P1;HPM_P2
2023/05/09 00:02:33;;;;;;;5.07;1.85;;;14.90;99.90;;;;;;12476504;28;20049;-40
2023/05/09 00:08:35;;;;;;;3.47;1.98;;;14.90;99.90;;;;;;12509144;28;20098;-39
2023/05/09 00:14:39;;;;;;;4.80;2.08;;;14.90;99.90;;;;;;12466767;28;20076;-40
2023/05/09 00:20:43;;;;;;;6.55;1.75;;;15.00;99.90;;;;;;12507318;28;20474;-39
2023/05/09 00:26:45;;;;;;;3.08;1.88;;;15.00;99.90;;;;;;12499764;28;20049;-40
2023/05/09 00:32:46;;;;;;;5.68;1.70;;;15.00;99.90;;;;;;12477843;28;20045;-40
2023/05/09 00:38:48;;;;;;;3.35;1.70;;;15.00;99.90;;;;;;12459959;28;20061;-40
2023/05/09 00:44:50;;;;;;;5.38;2.10;;;15.00;99.90;;;;;;12485444;28;20041;-40
2023/05/09 00:50:52;;;;;;;5.53;1.90;;;15.00;99.90;;;;;;12492471;28;20072;-39
2023/05/09 00:56:54;;;;;;;3.17;1.90;;;14.90;99.90;;;;;;12494516;28;20478;-40
2023/05/09 01:02:56;;;;;;;6.65;2.10;;;14.80;99.90;;;;;;12489335;28;20126;-40
2023/05/09 01:09:07;;;;;;;3.55;1.90;;;14.80;99.90;;;;;;12475542;28;20049;-39
2023/05/09 01:15:22;;;;;;;2.25;1.60;;;14.70;99.90;;;;;;12485218;28;20046;-40
2023/05/09 01:21:32;;;;;;;2.85;1.65;;;14.70;99.90;;;;;;12473596;28;20128;-40
2023/05/09 01:28:06;;;;;;;4.75;2.00;;;14.70;99.90;;;;;;12485127;28;20061;-39
2023/05/09 01:34:10;;;;;;;4.20;1.73;;;14.60;99.90;;;;;;12473949;28;20045;-40
2023/05/09 01:40:17;;;;;;;3.30;1.83;;;14.50;99.90;;;;;;12474679;28;20128;-39
2023/05/09 01:46:21;;;;;;;4.65;2.00;;;14.30;99.90;;;;;;12484283;28;20041;-39
2023/05/09 01:52:24;;;;;;;;;;;14.30;99.90;;;;;;12496736;28;20052;-39
2023/05/09 01:58:26;;;;;;;6.45;2.00;;;14.20;99.90;;;;;;12479740;28;19971;-39
2023/05/09 02:04:30;;;;;;;3.35;1.65;;;14.10;99.90;;;;;;12444212;28;1072015;-39
2023/05/09 02:10:33;;;;;;;4.15;2.05;;;14.10;99.90;;;;;;12494761;28;20465;-39
2023/05/09 02:16:35;;;;;;;3.33;2.10;;;14.10;99.90;;;;;;12464436;28;20050;-39
2023/05/09 02:22:38;;;;;;;6.82;1.88;;;14.00;99.90;;;;;;12491581;28;20136;-39
2023/05/09 02:28:42;;;;;;;5.20;2.20;;;14.00;99.90;;;;;;12473174;28;20111;-39
2023/05/09 02:34:45;;;;;;;3.05;2.15;;;14.00;99.90;;;;;;12488193;28;20077;-40
2023/05/09 02:40:49;;;;;;;4.43;2.17;;;13.90;99.90;;;;;;12483475;28;20104;-39
2023/05/09 02:46:53;;;;;;;5.47;2.28;;;13.90;99.90;;;;;;12483777;28;20053;-40
2023/05/09 02:52:55;;;;;;;3.58;2.15;;;14.00;99.90;;;;;;12477104;28;20041;-40
2023/05/09 02:58:56;;;;;;;6.22;2.30;;;13.90;99.90;;;;;;12480729;28;20049;-39
2023/05/09 03:04:58;;;;;;;5.03;2.63;;;13.90;99.90;;;;;;12478560;28;20128;-40
2023/05/09 03:11:00;;;;;;;5.07;2.80;;;13.80;99.90;;;;;;12479914;28;20049;-40
2023/05/09 03:17:02;;;;;;;3.90;2.70;;;13.90;99.90;;;;;;12465615;28;20045;-39
2023/05/09 03:23:04;;;;;;;4.13;2.50;;;13.90;99.90;;;;;;12481857;28;20045;-40
2023/05/09 03:29:06;;;;;;;6.32;2.58;;;13.90;99.90;;;;;;12480013;28;20060;-38
2023/05/09 03:35:08;;;;;;;4.35;2.67;;;13.90;99.90;;;;;;12475471;28;20103;-40
2023/05/09 03:41:11;;;;;;;4.20;2.45;;;13.90;99.90;;;;;;12476091;28;20061;-39
2023/05/09 03:47:13;;;;;;;5.07;2.73;;;13.80;99.90;;;;;;12472205;28;20072;-39
2023/05/09 03:53:15;;;;;;;3.75;2.25;;;13.90;99.90;;;;;;12457545;28;20037;-40
2023/05/09 03:59:17;;;;;;;2.88;2.00;;;13.90;99.90;;;;;;12456273;28;20073;-39
2023/05/09 04:05:19;;;;;;;5.97;2.60;;;13.90;99.90;;;;;;12482454;28;20140;-39
2023/05/09 04:11:21;;;;;;;4.13;2.60;;;14.10;99.90;;;;;;12480846;28;20049;-39
2023/05/09 04:17:22;;;;;;;7.18;2.80;;;14.70;99.90;;;;;;12455590;28;20041;-38
2023/05/09 04:23:25;;;;;;;3.97;2.75;;;14.80;99.90;;;;;;12488028;28;20132;-39
2023/05/09 04:29:27;;;;;;;5.97;3.40;;;14.40;99.90;;;;;;12473389;28;20494;-39
2023/05/09 04:35:29;;;;;;;6.45;3.17;;;14.20;99.90;;;;;;12476332;28;20509;-39
2023/05/09 04:41:31;;;;;;;5.82;3.15;;;14.20;99.90;;;;;;12473888;28;20111;-39
2023/05/09 04:47:33;;;;;;;5.60;3.10;;;14.50;99.90;;;;;;12475664;28;20052;-38
2023/05/09 04:53:35;;;;;;;5.47;4.05;;;14.50;99.90;;;;;;12485253;28;20042;-39
2023/05/09 04:59:36;;;;;;;8.60;3.33;;;15.40;99.90;;;;;;12480061;28;20045;-39
2023/05/09 05:05:40;;;;;;;4.45;3.20;;;17.00;99.90;;;;;;12501586;28;20473;-40
2023/05/09 05:11:42;;;;;;;5.55;3.30;;;15.80;99.90;;;;;;12498045;28;20049;-40
2023/05/09 05:17:59;;;;;;;7.63;3.83;;;15.00;99.90;;;;;;12489932;28;20417;-39
2023/05/09 05:24:01;;;;;;;5.22;3.65;;;14.60;99.90;;;;;;12494370;28;20425;-39
2023/05/09 05:30:03;;;;;;;8.57;4.50;;;14.50;99.90;;;;;;12493197;28;20513;-39
2023/05/09 05:36:05;;;;;;;5.32;3.78;;;14.50;99.90;;;;;;12495322;28;20049;-39
2023/05/09 05:42:07;;;;;;;6.63;4.60;;;14.50;99.90;;;;;;12496446;28;20077;-40
2023/05/09 05:48:09;;;;;;;7.63;4.47;;;14.60;99.90;;;;;;12491980;28;20045;-39
2023/05/09 05:54:11;;;;;;;7.43;4.82;;;14.70;99.90;;;;;;12494257;28;20041;-40
2023/05/09 06:00:13;;;;;;;7.03;4.55;;;14.70;99.90;;;;;;12505229;28;20045;-39
2023/05/09 06:06:15;;;;;;;7.20;4.55;;;14.70;99.90;;;;;;12505415;28;20088;-40
2023/05/09 06:12:18;;;;;;;6.60;4.97;;;14.70;99.90;;;;;;12450855;28;20076;-39
2023/05/09 06:18:20;;;;;;;9.15;5.40;;;14.80;99.90;;;;;;12476810;28;20048;-37
2023/05/09 06:24:21;;;;;;;9.50;5.45;;;15.40;99.90;;;;;;12485629;28;20063;-37
2023/05/09 06:30:36;;;;;;;;;;;15.50;99.90;;;;;;12494190;28;20115;-36
2023/05/09 06:36:37;;;;;;;8.80;5.70;;;15.40;99.90;;;;;;12487100;28;19925;-38
2023/05/09 06:42:40;;;;;;;7.45;5.35;;;15.40;99.90;;;;;;12490808;28;20049;-37
2023/05/09 06:48:41;;;;;;;9.05;4.85;;;15.40;99.90;;;;;;12475039;28;20103;-39
2023/05/09 06:54:43;;;;;;;10.18;5.03;;;15.70;99.90;;;;;;12481941;28;20095;-37
2023/05/09 07:00:46;;;;;;;7.22;5.05;;;15.70;99.90;;;;;;12490806;28;20076;-37
2023/05/09 07:06:48;;;;;;;7.85;5.50;;;15.90;99.90;;;;;;12472385;28;20076;-37
2023/05/09 07:12:50;;;;;;;7.13;5.22;;;16.20;99.90;;;;;;12491412;28;20045;-37
2023/05/09 07:18:51;;;;;;;6.75;5.07;;;16.50;99.90;;;;;;12478215;28;20049;-37
2023/05/09 07:24:53;;;;;;;7.97;5.20;;;16.90;99.90;;;;;;12473791;28;20049;-37
2023/05/09 07:30:56;;;;;;;6.88;5.82;;;16.90;99.90;;;;;;12479146;28;20057;-37
2023/05/09 07:36:58;;;;;;;7.75;6.38;;;17.20;99.90;;;;;;12465979;28;20184;-37
2023/05/09 07:43:00;;;;;;;9.13;6.10;;;17.20;99.90;;;;;;12474940;28;20565;-37
2023/05/09 07:49:02;;;;;;;7.82;6.20;;;17.30;99.90;;;;;;12469321;28;20410;-38
2023/05/09 07:55:04;;;;;;;9.25;6.35;;;17.60;99.90;;;;;;12472073;28;20128;-38
2023/05/09 08:01:06;;;;;;;8.40;6.25;;;17.60;99.90;;;;;;12478516;28;20080;-38
2023/05/09 08:07:08;;;;;;;9.63;7.10;;;17.50;99.90;;;;;;12477219;28;20107;-37
2023/05/09 08:13:10;;;;;;;8.77;6.93;;;17.60;99.90;;;;;;12480827;28;20046;-37
2023/05/09 08:19:12;;;;;;;10.50;6.88;;;17.50;99.90;;;;;;12490484;28;20049;-37
2023/05/09 08:25:17;;;;;;;12.02;6.72;;;17.60;99.90;;;;;;12468765;28;20515;-37
2023/05/09 08:31:19;;;;;;;10.63;7.20;;;17.70;99.90;;;;;;12498021;28;20045;-37
2023/05/09 08:37:21;;;;;;;8.93;6.78;;;17.70;99.90;;;;;;12498708;28;20053;-38
2023/05/09 08:43:27;;;;;;;18.63;7.32;;;18.00;99.90;;;;;;12489131;28;20053;-37
2023/05/09 08:49:30;;;;;;;11.05;7.63;;;18.30;99.90;;;;;;12492622;28;20056;-38
2023/05/09 08:55:32;;;;;;;12.85;7.47;;;18.80;99.90;;;;;;12471947;28;20057;-38
2023/05/09 09:01:36;;;;;;;10.23;7.60;;;19.20;99.90;;;;;;12487997;28;20041;-37
2023/05/09 09:07:40;;;;;;;12.07;7.60;;;18.70;99.90;;;;;;12487368;28;20088;-38
2023/05/09 09:13:44;;;;;;;9.68;7.57;;;18.60;99.90;;;;;;12481421;28;20079;-38
2023/05/09 09:19:48;;;;;;;;;;;18.90;99.90;;;;;;12499432;28;20108;-37
2023/05/09 09:25:56;;;;;;;9.18;6.72;;;18.90;99.90;;;;;;12489589;28;20273;-38
2023/05/09 09:32:02;;;;;;;9.77;7.32;;;18.90;99.90;;;;;;12495611;28;20147;-38
2023/05/09 09:38:05;;;;;;;8.07;6.78;;;18.80;99.90;;;;;;12475216;28;20049;-38
2023/05/09 09:44:08;;;;;;;12.23;7.50;;;18.80;99.90;;;;;;12493750;28;20140;-38
2023/05/09 09:50:14;;;;;;;10.35;8.30;;;18.80;99.90;;;;;;12500775;28;20076;-38
2023/05/09 09:56:16;;;;;;;12.05;8.18;;;18.80;99.90;;;;;;12475833;28;20060;-39
2023/05/09 10:02:23;;;;;;;13.98;8.95;;;18.60;99.90;;;;;;12490246;28;20106;-38
2023/05/09 10:08:25;;;;;;;12.25;8.32;;;18.50;99.90;;;;;;12463191;28;20426;-37
2023/05/09 10:14:29;;;;;;;12.43;9.73;;;18.70;99.90;;;;;;12480308;28;20417;-37
2023/05/09 10:20:34;;;;;;;12.95;9.50;;;18.80;99.90;;;;;;12498681;28;20072;-38
2023/05/09 10:26:43;;;;;;;12.60;9.70;;;18.80;99.90;;;;;;12496945;28;20049;-38
2023/05/09 10:33:06;;;;;;;11.82;9.40;;;18.80;99.90;;;;;;12493897;28;20312;-38
2023/05/09 10:39:09;;;;;;;9.95;8.85;;;19.10;99.90;;;;;;12480911;28;20056;-38
2023/05/09 10:45:11;;;;;;;12.35;9.18;;;19.40;99.90;;;;;;12483117;28;20136;-38
2023/05/09 10:51:15;;;;;;;13.10;9.00;;;19.40;99.90;;;;;;12496726;28;20451;-38
2023/05/09 10:57:18;;;;;;;14.70;9.00;;;19.50;99.90;;;;;;12464381;28;20069;-37
2023/05/09 11:03:20;;;;;;;10.95;8.40;;;19.60;99.90;;;;;;12494525;28;20049;-38
2023/05/09 11:09:33;;;;;;;12.60;8.98;;;19.50;99.90;;;;;;12484625;28;20053;-38
2023/05/09 11:15:48;;;;;;;9.75;8.68;;;19.60;99.90;;;;;;12486758;28;20122;-39
2023/05/09 11:22:14;;;;;;;11.68;8.32;;;19.50;99.90;;;;;;12484699;28;20061;-38
2023/05/09 11:28:28;;;;;;;9.10;8.15;;;19.50;99.90;;;;;;12468212;28;20056;-38
2023/05/09 11:34:30;;;;;;;11.32;9.07;;;19.70;99.90;;;;;;12469755;28;20081;-38
2023/05/09 11:40:33;;;;;;;12.25;8.02;;;19.80;99.90;;;;;;12480597;28;20075;-39
2023/05/09 11:46:36;;;;;;;10.88;8.75;;;20.10;99.90;;;;;;12486468;28;20049;-39
2023/05/09 11:52:40;;;;;;;8.88;7.43;;;20.60;99.90;;;;;;12468673;28;20136;-38
2023/05/09 11:58:42;;;;;;;7.68;6.15;;;21.00;99.90;;;;;;12482505;28;20045;-38
2023/05/09 12:04:44;;;;;;;7.63;5.70;;;21.10;99.90;;;;;;12493920;28;20132;-38
2023/05/09 12:10:46;;;;;;;6.78;5.43;;;21.10;99.90;;;;;;12495742;28;20048;-38
2023/05/09 12:16:48;;;;;;;9.25;6.18;;;21.40;99.90;;;;;;12461394;28;20041;-38
2023/05/09 12:22:52;;;;;;;7.50;5.70;;;21.20;99.90;;;;;;12481593;28;20088;-39
2023/05/09 12:28:54;;;;;;;6.88;6.18;;;21.30;99.90;;;;;;12483895;28;20053;-38
2023/05/09 12:34:57;;;;;;;9.13;5.43;;;21.30;99.90;;;;;;12487290;28;21196;-38
2023/05/09 12:41:04;;;;;;;11.73;5.53;;;21.80;99.90;;;;;;12496024;28;20253;-40
2023/05/09 12:47:06;;;;;;;8.25;5.97;;;21.90;99.90;;;;;;12477445;28;20520;-38
2023/05/09 12:53:08;;;;;;;7.32;5.78;;;21.60;99.90;;;;;;12482040;28;20119;-39
2023/05/09 12:59:13;;;;;;;7.63;5.72;;;21.30;99.90;;;;;;12472772;28;20555;-39
2023/05/09 13:05:20;;;;;;;10.90;6.53;;;21.80;99.90;;;;;;12466167;28;20084;-38
2023/05/09 13:11:22;;;;;;;9.13;5.72;;;21.80;99.90;;;;;;12438433;28;20049;-38
2023/05/09 13:17:23;;;;;;;5.97;4.85;;;21.80;99.90;;;;;;12436072;28;20622;-38
2023/05/09 13:23:26;;;;;;;6.22;5.47;;;21.70;99.90;;;;;;12439994;28;20072;-39
2023/05/09 13:29:27;;;;;;;7.65;5.43;;;21.60;99.90;;;;;;12448246;28;20049;-39
2023/05/09 13:35:29;;;;;;;7.88;5.80;;;21.20;99.90;;;;;;12446421;28;20054;-39
2023/05/09 13:41:32;;;;;;;8.55;5.38;;;21.10;99.90;;;;;;12443148;28;20172;-38
2023/05/09 13:47:36;;;;;;;7.45;5.85;;;21.10;99.90;;;;;;12444123;28;20060;-38
2023/05/09 13:53:39;;;;;;;8.07;5.75;;;20.90;99.90;;;;;;12433295;28;20046;-40
2023/05/09 13:59:41;;;;;;;8.52;5.93;;;20.90;99.90;;;;;;12410896;28;20116;-37
2023/05/09 14:05:43;;;;;;;7.43;6.05;;;21.00;99.90;;;;;;12443848;28;20049;-38
2023/05/09 14:11:45;;;;;;;7.50;6.10;;;21.60;99.90;;;;;;12469921;28;20091;-38
2023/05/09 14:17:48;;;;;;;9.63;5.23;;;21.90;99.90;;;;;;12481083;28;20132;-39
2023/05/09 14:23:50;;;;;;;7.50;5.10;;;21.60;99.90;;;;;;12478848;28;20064;-38
2023/05/09 14:29:52;;;;;;;6.75;5.38;;;21.60;99.90;;;;;;12479214;28;20080;-38
2023/05/09 14:35:54;;;;;;;6.13;4.93;;;21.80;99.90;;;;;;12484192;28;20383;-37
2023/05/09 14:41:56;;;;;;;7.40;5.00;;;21.70;99.90;;;;;;12481518;28;20037;-38
2023/05/09 14:48:04;;;;;;;8.73;5.30;;;21.20;99.90;;;;;;12485988;28;20115;-38
2023/05/09 14:54:07;;;;;;;6.75;5.45;;;21.10;99.90;;;;;;12474117;28;20037;-38
2023/05/09 15:00:10;;;;;;;6.22;4.70;;;21.10;99.90;;;;;;12466318;28;20160;-39
2023/05/09 15:06:22;;;;;;;8.75;5.30;;;21.40;99.90;;;;;;12482862;28;20049;-38
2023/05/09 15:12:24;;;;;;;6.38;5.10;;;21.40;99.90;;;;;;12484281;28;20179;-38
2023/05/09 15:18:27;;;;;;;7.38;4.90;;;21.10;99.90;;;;;;12482052;28;20717;-38
2023/05/09 15:24:29;;;;;;;;;;;21.00;99.90;;;;;;12462407;28;20083;-38
2023/05/09 15:30:31;;;;;;;6.25;5.03;;;21.40;99.90;;;;;;12489333;28;20007;-37
2023/05/09 15:36:33;;;;;;;8.18;4.75;;;21.40;99.90;;;;;;12491510;28;20437;-38
2023/05/09 15:42:36;;;;;;;8.15;5.07;;;21.20;99.90;;;;;;12498408;28;20140;-38
2023/05/09 15:48:38;;;;;;;7.00;4.70;;;21.00;99.90;;;;;;12475584;28;20057;-37
2023/05/09 15:54:40;;;;;;;6.97;5.00;;;20.90;99.90;;;;;;12491479;28;20044;-38
2023/05/09 16:00:41;;;;;;;6.47;4.90;;;20.80;99.90;;;;;;12468185;28;20106;-37
2023/05/09 16:06:43;;;;;;;6.32;4.70;;;20.80;99.90;;;;;;12480821;28;20717;-37
2023/05/09 16:12:47;;;;;;;8.27;4.75;;;20.70;99.90;;;;;;12478776;28;20054;-40
2023/05/09 16:18:49;;;;;;;6.28;4.80;;;20.60;99.90;;;;;;12501374;28;20048;-37
2023/05/09 16:24:51;;;;;;;7.25;4.68;;;20.50;99.90;;;;;;12471918;28;20046;-38
2023/05/09 16:30:53;;;;;;;5.25;4.35;;;20.40;99.90;;;;;;12477418;28;20050;-39
2023/05/09 16:36:55;;;;;;;6.10;4.68;;;20.50;99.90;;;;;;12490348;28;20132;-37
2023/05/09 16:42:57;;;;;;;6.57;4.30;;;20.30;99.90;;;;;;12487045;28;20049;-37
2023/05/09 16:48:59;;;;;;;5.65;4.28;;;20.20;99.90;;;;;;12494165;28;20490;-37
2023/05/09 16:55:01;;;;;;;6.50;4.10;;;20.00;99.90;;;;;;12484790;28;20041;-37
2023/05/09 17:01:03;;;;;;;5.47;3.95;;;20.00;99.90;;;;;;12497313;28;20482;-37
2023/05/09 17:07:05;;;;;;;5.85;3.65;;;20.00;99.90;;;;;;12486053;28;20119;-37
2023/05/09 17:13:07;;;;;;;6.15;3.83;;;20.00;99.90;;;;;;12488770;28;20456;-38
2023/05/09 17:19:09;;;;;;;8.13;4.00;;;19.90;99.90;;;;;;12502908;28;20060;-38
2023/05/09 17:25:11;;;;;;;7.47;3.92;;;19.90;99.90;;;;;;12475857;28;20049;-37
2023/05/09 17:31:13;;;;;;;6.13;3.70;;;19.80;99.90;;;;;;12487900;28;20045;-37
2023/05/09 17:37:16;;;;;;;4.78;3.90;;;19.80;99.90;;;;;;12491410;28;20138;-37
2023/05/09 17:43:20;;;;;;;6.70;4.10;;;19.70;99.90;;;;;;12471564;28;20405;-37
2023/05/09 17:49:23;;;;;;;5.85;4.55;;;19.60;99.90;;;;;;12482959;28;20097;-37
2023/05/09 17:55:25;;;;;;;5.40;3.50;;;19.60;99.90;;;;;;12496905;28;20057;-37
2023/05/09 18:01:27;;;;;;;7.43;4.22;;;19.60;99.90;;;;;;12498641;28;20045;-38
2023/05/09 18:07:30;;;;;;;5.03;3.78;;;19.60;99.90;;;;;;12478001;28;20062;-37
2023/05/09 18:13:33;;;;;;;5.63;4.20;;;19.50;99.90;;;;;;12481610;28;20041;-38
2023/05/09 18:19:35;;;;;;;11.80;5.38;;;19.40;99.90;;;;;;12492164;28;20167;-37
2023/05/09 18:25:37;;;;;;;6.90;5.78;;;19.00;99.90;;;;;;12492455;28;20102;-37
2023/05/09 18:31:40;;;;;;;6.88;5.55;;;18.70;99.90;;;;;;12491772;28;20056;-37
2023/05/09 18:37:42;;;;;;;11.13;6.40;;;18.60;99.90;;;;;;12490908;28;20485;-37
2023/05/09 18:43:44;;;;;;;8.57;6.47;;;18.10;99.90;;;;;;12492742;28;20494;-37
2023/05/09 18:49:46;;;;;;;8.40;6.80;;;17.80;99.90;;;;;;12484186;28;20061;-37
2023/05/09 18:55:48;;;;;;;8.88;5.88;;;17.60;99.90;;;;;;12463793;28;20261;-37
2023/05/09 19:01:50;;;;;;;6.30;5.45;;;17.70;99.90;;;;;;12483263;28;20046;-38
2023/05/09 19:07:52;;;;;;;8.18;5.82;;;17.70;99.90;;;;;;12506108;28;20527;-37
2023/05/09 19:13:54;;;;;;;8.32;6.28;;;17.50;99.90;;;;;;12450298;28;20041;-38
2023/05/09 19:19:57;;;;;;;7.93;5.75;;;17.30;99.90;;;;;;12472894;28;20046;-40
2023/05/09 19:25:59;;;;;;;6.13;5.15;;;17.20;99.90;;;;;;12493327;28;20052;-39
2023/05/09 19:32:01;;;;;;;5.88;4.88;;;17.40;99.90;;;;;;12466164;28;20211;-40
2023/05/09 19:38:04;;;;;;;6.77;5.40;;;17.40;99.90;;;;;;12485835;28;20065;-41
2023/05/09 19:44:06;;;;;;;7.85;5.40;;;17.40;99.90;;;;;;12480555;28;20044;-40
2023/05/09 19:50:08;;;;;;;6.97;5.47;;;17.40;99.90;;;;;;12490903;28;20105;-40
2023/05/09 19:56:11;;;;;;;8.40;5.43;;;17.40;99.90;;;;;;12483079;28;20157;-40
2023/05/09 20:02:13;;;;;;;9.87;7.20;;;17.50;99.90;;;;;;12481792;28;20050;-40
2023/05/09 20:08:15;;;;;;;6.68;5.97;;;17.10;99.90;;;;;;12488947;28;20505;-39
2023/05/09 20:14:17;;;;;;;6.53;5.13;;;17.10;99.90;;;;;;12472289;28;20430;-40
2023/05/09 20:20:23;;;;;;;8.57;5.13;;;17.10;99.90;;;;;;12482377;28;20046;-40
2023/05/09 20:26:27;;;;;;;7.75;6.18;;;17.10;99.90;;;;;;12487511;28;20132;-41
2023/05/09 20:32:29;;;;;;;7.23;6.37;;;17.10;99.90;;;;;;12496017;28;20387;-42
2023/05/09 20:38:31;;;;;;;7.45;6.25;;;16.80;99.90;;;;;;12474710;28;20048;-40
2023/05/09 20:44:33;;;;;;;5.93;5.00;;;16.80;99.90;;;;;;12478991;28;20553;-40
2023/05/09 20:50:35;;;;;;;8.35;6.75;;;16.90;99.90;;;;;;12476415;28;20549;-40
2023/05/09 20:56:37;;;;;;;9.10;6.43;;;16.80;99.90;;;;;;12497500;28;20092;-40
2023/05/09 21:02:38;;;;;;;9.70;6.45;;;16.50;99.90;;;;;;12477351;28;20049;-39
2023/05/09 21:08:42;;;;;;;7.38;5.05;;;16.10;99.90;;;;;;12472644;28;20057;-41
2023/05/09 21:14:43;;;;;;;5.85;3.97;;;15.90;99.90;;;;;;12474512;28;20080;-40
2023/05/09 21:20:45;;;;;;;3.97;2.88;;;15.70;99.90;;;;;;12481892;28;20038;-40
2023/05/09 21:26:47;;;;;;;4.28;3.20;;;15.80;99.90;;;;;;12481147;28;20046;-40
2023/05/09 21:32:50;;;;;;;4.32;3.40;;;16.10;99.90;;;;;;12460621;28;20048;-40
2023/05/09 21:38:52;;;;;;;5.80;3.87;;;16.30;99.90;;;;;;12477687;28;20475;-40
2023/05/09 21:44:54;;;;;;;5.78;3.60;;;16.30;99.90;;;;;;12496445;28;20087;-40
2023/05/09 21:50:59;;;;;;;5.25;3.35;;;16.30;99.90;;;;;;12485948;28;20413;-40
2023/05/09 21:57:01;;;;;;;4.75;3.40;;;16.30;99.90;;;;;;12491394;28;20477;-39
2023/05/09 22:03:04;;;;;;;5.20;3.80;;;16.20;99.90;;;;;;12495911;28;20474;-39
2023/05/09 22:09:06;;;;;;;5.70;3.63;;;16.20;99.90;;;;;;12495426;28;20053;-40
2023/05/09 22:15:08;;;;;;;6.30;4.50;;;16.30;99.90;;;;;;12487774;28;20034;-39
2023/05/09 22:21:10;;;;;;;5.80;4.45;;;16.20;99.90;;;;;;12480211;28;20037;-40
2023/05/09 22:27:12;;;;;;;4.88;3.80;;;16.20;99.90;;;;;;12495375;28;20490;-39
2023/05/09 22:33:14;;;;;;;6.50;4.32;;;16.10;99.90;;;;;;12477772;28;20112;-40
2023/05/09 22:39:16;;;;;;;4.88;4.10;;;15.90;99.90;;;;;;12501042;28;20104;-39
2023/05/09 22:45:19;;;;;;;5.22;4.57;;;15.90;99.90;;;;;;12481539;28;20046;-39
2023/05/09 22:51:21;;;;;;;5.53;4.30;;;15.80;99.90;;;;;;12472663;28;20167;-40
2023/05/09 22:57:23;;;;;;;8.73;4.45;;;15.90;99.90;;;;;;12488601;28;20068;-39
2023/05/09 23:03:25;;;;;;;5.65;4.45;;;15.70;99.90;;;;;;12496373;28;20048;-40
2023/05/09 23:09:27;;;;;;;6.03;4.70;;;15.70;99.90;;;;;;12488459;28;20510;-40
2023/05/09 23:15:29;;;;;;;7.07;4.93;;;15.80;99.90;;;;;;12470328;28;20099;-40
2023/05/09 23:21:31;;;;;;;7.60;4.57;;;15.80;99.90;;;;;;12476117;28;20049;-39
2023/05/09 23:27:33;;;;;;;5.95;4.55;;;15.70;99.90;;;;;;12503947;28;20476;-39
2023/05/09 23:33:36;;;;;;;7.32;5.25;;;15.70;99.90;;;;;;12498601;28;20132;-40
2023/05/09 23:39:38;;;;;;;8.75;4.95;;;15.60;99.90;;;;;;12486277;28;20147;-39
2023/05/09 23:45:40;;;;;;;8.52;5.63;;;15.60;99.90;;;;;;12488305;28;20045;-40
2023/05/09 23:51:42;;;;;;;7.28;5.60;;;15.70;99.90;;;;;;12473328;28;20049;-39
2023/05/09 23:57:44;;;;;;;6.72;5.22;;;15.60;99.90;;;;;;12460476;28;20184;-39
